sensor_id;sensor_type;location;lat;lon;timestamp;temperature;humidity
74520;DHT22;63002;48.134;-1.948;2022-09-17T05:02:26;13.90;54.80
74520;DHT22;63002;48.134;-1.948;2022-09-17T05:04:52;13.90;54.80
74520;DHT22;63002;48.134;-1.948;2022-09-17T05:07:18;13.90;54.70
74520;DHT22;63002;48.134;-1.948;2022-09-17T05:09:43;13.80;54.80
74520;DHT22;63002;48.134;-1.948;2022-09-17T05:12:09;13.80;54.70
74520;DHT22;63002;48.134;-1.948;2022-09-17T05:14:35;13.80;54.70
74520;DHT22;63002;48.134;-1.948;2022-09-17T05:17:01;13.80;54.70
74520;DHT22;63002;48.134;-1.948;2022-09-17T05:19:26;13.80;54.80
74520;DHT22;63002;48.134;-1.948;2022-09-17T05:21:52;13.70;54.60
74520;DHT22;63002;48.134;-1.948;2022-09-17T05:24:18;13.70;54.60
74520;DHT22;63002;48.134;-1.948;2022-09-17T05:26:43;13.70;54.80
74520;DHT22;63002;48.134;-1.948;2022-09-17T05:29:09;13.70;54.60
74520;DHT22;63002;48.134;-1.948;2022-09-17T05:31:35;13.70;54.60
74520;DHT22;63002;48.134;-1.948;2022-09-17T05:34:00;13.70;54.70
74520;DHT22;63002;48.134;-1.948;2022-09-17T05:36:26;13.60;54.70
74520;DHT22;63002;48.134;-1.948;2022-09-17T05:38:52;13.60;54.60
74520;DHT22;63002;48.134;-1.948;2022-09-17T05:41:17;13.60;54.90
74520;DHT22;63002;48.134;-1.948;2022-09-17T05:43:43;13.60;55.00
74520;DHT22;63002;48.134;-1.948;2022-09-17T05:46:09;13.60;55.00
74520;DHT22;63002;48.134;-1.948;2022-09-17T05:48:35;13.60;54.90
74520;DHT22;63002;48.134;-1.948;2022-09-17T05:51:01;13.60;54.90
74520;DHT22;63002;48.134;-1.948;2022-09-17T05:53:27;13.60;54.80
74520;DHT22;63002;48.134;-1.948;2022-09-17T05:55:59;13.60;54.90
74520;DHT22;63002;48.134;-1.948;2022-09-17T05:58:25;13.70;54.80
74520;DHT22;63002;48.134;-1.948;2022-09-17T06:00:52;13.70;54.70
74520;DHT22;63002;48.134;-1.948;2022-09-17T06:03:19;13.70;54.60
74520;DHT22;63002;48.134;-1.948;2022-09-17T06:05:55;13.70;54.70
74520;DHT22;63002;48.134;-1.948;2022-09-17T06:08:23;13.70;54.80
74520;DHT22;63002;48.134;-1.948;2022-09-17T06:10:49;13.70;54.80
74520;DHT22;63002;48.134;-1.948;2022-09-17T06:13:19;13.70;55.00
74520;DHT22;63002;48.134;-1.948;2022-09-17T06:15:55;13.70;55.00
74520;DHT22;63002;48.134;-1.948;2022-09-17T06:18:21;13.80;55.30
74520;DHT22;63002;48.134;-1.948;2022-09-17T06:20:55;13.90;56.60
74520;DHT22;63002;48.134;-1.948;2022-09-17T06:23:21;14.30;57.00
74520;DHT22;63002;48.134;-1.948;2022-09-17T06:25:57;14.70;56.50
74520;DHT22;63002;48.134;-1.948;2022-09-17T06:28:24;15.10;55.70
74520;DHT22;63002;48.134;-1.948;2022-09-17T06:30:50;15.50;54.70
74520;DHT22;63002;48.134;-1.948;2022-09-17T06:33:19;15.70;53.70
74520;DHT22;63002;48.134;-1.948;2022-09-17T06:35:46;16.10;53.40
74520;DHT22;63002;48.134;-1.948;2022-09-17T06:38:13;16.40;52.60
74520;DHT22;63002;48.134;-1.948;2022-09-17T06:40:39;16.70;51.80
74520;DHT22;63002;48.134;-1.948;2022-09-17T06:43:07;17.00;51.60
74520;DHT22;63002;48.134;-1.948;2022-09-17T06:45:33;17.30;51.00
74520;DHT22;63002;48.134;-1.948;2022-09-17T06:48:02;17.50;50.50
74520;DHT22;63002;48.134;-1.948;2022-09-17T06:50:28;17.80;50.10
74520;DHT22;63002;48.134;-1.948;2022-09-17T06:52:55;18.00;49.50
74520;DHT22;63002;48.134;-1.948;2022-09-17T06:55:21;18.20;49.10
74520;DHT22;63002;48.134;-1.948;2022-09-17T06:57:47;18.40;48.80
74520;DHT22;63002;48.134;-1.948;2022-09-17T07:00:13;18.70;48.30
74520;DHT22;63002;48.134;-1.948;2022-09-17T07:02:40;18.80;47.90
74520;DHT22;63002;48.134;-1.948;2022-09-17T07:05:06;19.00;47.70
74520;DHT22;63002;48.134;-1.948;2022-09-17T07:07:32;19.10;47.20
74520;DHT22;63002;48.134;-1.948;2022-09-17T07:10:00;19.30;47.10
74520;DHT22;63002;48.134;-1.948;2022-09-17T07:12:26;19.40;46.60
74520;DHT22;63002;48.134;-1.948;2022-09-17T07:14:52;19.60;46.30
74520;DHT22;63002;48.134;-1.948;2022-09-17T07:17:18;19.70;46.40
74520;DHT22;63002;48.134;-1.948;2022-09-17T07:19:43;19.90;46.20
74520;DHT22;63002;48.134;-1.948;2022-09-17T07:22:09;20.00;46.10
74520;DHT22;63002;48.134;-1.948;2022-09-17T07:24:35;20.20;45.60
74520;DHT22;63002;48.134;-1.948;2022-09-17T07:27:00;20.30;45.50
74520;DHT22;63002;48.134;-1.948;2022-09-17T07:29:26;20.50;45.40
74520;DHT22;63002;48.134;-1.948;2022-09-17T07:31:53;20.70;45.00
74520;DHT22;63002;48.134;-1.948;2022-09-17T07:34:19;20.90;44.70
74520;DHT22;63002;48.134;-1.948;2022-09-17T07:36:44;21.00;44.70
74520;DHT22;63002;48.134;-1.948;2022-09-17T07:39:10;21.20;44.30
74520;DHT22;63002;48.134;-1.948;2022-09-17T07:41:38;21.40;43.80
74520;DHT22;63002;48.134;-1.948;2022-09-17T07:44:04;21.50;43.70
74520;DHT22;63002;48.134;-1.948;2022-09-17T07:46:31;21.70;43.40
74520;DHT22;63002;48.134;-1.948;2022-09-17T07:48:57;21.90;43.20
74520;DHT22;63002;48.134;-1.948;2022-09-17T07:51:24;22.10;43.00
74520;DHT22;63002;48.134;-1.948;2022-09-17T07:53:51;22.20;42.80
74520;DHT22;63002;48.134;-1.948;2022-09-17T07:56:17;22.40;42.50
74520;DHT22;63002;48.134;-1.948;2022-09-17T07:58:43;22.60;42.60
74520;DHT22;63002;48.134;-1.948;2022-09-17T08:01:11;22.80;42.40
74520;DHT22;63002;48.134;-1.948;2022-09-17T08:03:38;23.00;42.10
74520;DHT22;63002;48.134;-1.948;2022-09-17T08:06:09;23.20;41.70
74520;DHT22;63002;48.134;-1.948;2022-09-17T08:08:36;23.40;41.70
74520;DHT22;63002;48.134;-1.948;2022-09-17T08:11:03;23.50;41.60
74520;DHT22;63002;48.134;-1.948;2022-09-17T08:13:30;23.70;41.30
74520;DHT22;63002;48.134;-1.948;2022-09-17T08:16:04;23.90;40.80
74520;DHT22;63002;48.134;-1.948;2022-09-17T08:18:31;24.10;40.50
74520;DHT22;63002;48.134;-1.948;2022-09-17T08:21:02;24.30;40.40
74520;DHT22;63002;48.134;-1.948;2022-09-17T08:23:29;24.50;40.10
74520;DHT22;63002;48.134;-1.948;2022-09-17T08:25:58;24.70;39.60
74520;DHT22;63002;48.134;-1.948;2022-09-17T08:28:27;24.80;39.70
74520;DHT22;63002;48.134;-1.948;2022-09-17T08:30:53;25.00;39.50
74520;DHT22;63002;48.134;-1.948;2022-09-17T08:33:20;25.20;39.40
74520;DHT22;63002;48.134;-1.948;2022-09-17T08:35:53;25.40;39.00
74520;DHT22;63002;48.134;-1.948;2022-09-17T08:38:19;25.60;38.80
74520;DHT22;63002;48.134;-1.948;2022-09-17T08:46:10;26.10;37.00
74520;DHT22;63002;48.134;-1.948;2022-09-17T08:48:47;26.20;36.20
74520;DHT22;63002;48.134;-1.948;2022-09-17T08:51:33;26.40;34.70
74520;DHT22;63002;48.134;-1.948;2022-09-17T08:54:18;26.60;34.10
74520;DHT22;63002;48.134;-1.948;2022-09-17T08:57:01;26.80;33.30
74520;DHT22;63002;48.134;-1.948;2022-09-17T09:05:20;27.30;32.40
74520;DHT22;63002;48.134;-1.948;2022-09-17T09:07:55;27.40;31.70
74520;DHT22;63002;48.134;-1.948;2022-09-17T09:10:28;27.60;31.20
74520;DHT22;63002;48.134;-1.948;2022-09-17T09:12:58;27.80;32.00
74520;DHT22;63002;48.134;-1.948;2022-09-17T09:15:41;27.90;32.00
74520;DHT22;63002;48.134;-1.948;2022-09-17T09:18:28;28.00;32.40
74520;DHT22;63002;48.134;-1.948;2022-09-17T09:21:24;28.00;31.90
74520;DHT22;63002;48.134;-1.948;2022-09-17T09:23:53;28.00;32.20
74520;DHT22;63002;48.134;-1.948;2022-09-17T09:26:44;28.20;31.80
74520;DHT22;63002;48.134;-1.948;2022-09-17T09:34:40;28.70;30.90
74520;DHT22;63002;48.134;-1.948;2022-09-17T09:37:20;28.90;30.30
74520;DHT22;63002;48.134;-1.948;2022-09-17T09:39:50;29.10;30.80
74520;DHT22;63002;48.134;-1.948;2022-09-17T09:42:32;29.20;31.40
74520;DHT22;63002;48.134;-1.948;2022-09-17T09:45:11;29.30;30.30
74520;DHT22;63002;48.134;-1.948;2022-09-17T09:58:24;29.50;30.20
74520;DHT22;63002;48.134;-1.948;2022-09-17T10:00:53;29.60;30.30
74520;DHT22;63002;48.134;-1.948;2022-09-17T10:03:26;29.80;29.50
74520;DHT22;63002;48.134;-1.948;2022-09-17T10:06:04;30.00;29.90
74520;DHT22;63002;48.134;-1.948;2022-09-17T10:08:35;30.00;29.70
74520;DHT22;63002;48.134;-1.948;2022-09-17T10:13:38;30.20;29.80
74520;DHT22;63002;48.134;-1.948;2022-09-17T10:16:21;30.40;29.60
74520;DHT22;63002;48.134;-1.948;2022-09-17T10:19:02;30.60;28.90
74520;DHT22;63002;48.134;-1.948;2022-09-17T10:21:41;30.70;29.50
74520;DHT22;63002;48.134;-1.948;2022-09-17T10:24:21;30.70;29.10
74520;DHT22;63002;48.134;-1.948;2022-09-17T10:26:48;30.90;28.60
74520;DHT22;63002;48.134;-1.948;2022-09-17T10:29:17;31.00;28.80
74520;DHT22;63002;48.134;-1.948;2022-09-17T10:31:52;31.00;28.60
74520;DHT22;63002;48.134;-1.948;2022-09-17T10:34:26;31.10;27.80
74520;DHT22;63002;48.134;-1.948;2022-09-17T10:36:54;31.20;28.30
74520;DHT22;63002;48.134;-1.948;2022-09-17T10:44:36;31.30;28.50
74520;DHT22;63002;48.134;-1.948;2022-09-17T10:47:11;31.30;28.50
74520;DHT22;63002;48.134;-1.948;2022-09-17T10:49:41;31.40;28.20
74520;DHT22;63002;48.134;-1.948;2022-09-17T10:52:12;31.30;28.30
74520;DHT22;63002;48.134;-1.948;2022-09-17T11:00:22;31.50;27.70
74520;DHT22;63002;48.134;-1.948;2022-09-17T11:09:04;31.60;28.10
74520;DHT22;63002;48.134;-1.948;2022-09-17T11:14:55;31.80;28.00
74520;DHT22;63002;48.134;-1.948;2022-09-17T11:25:59;31.80;28.10
74520;DHT22;63002;48.134;-1.948;2022-09-17T11:36:36;31.90;27.40
74520;DHT22;63002;48.134;-1.948;2022-09-17T11:39:20;31.90;27.10
74520;DHT22;63002;48.134;-1.948;2022-09-17T11:41:49;32.00;27.30
74520;DHT22;63002;48.134;-1.948;2022-09-17T11:44:29;32.00;26.60
74520;DHT22;63002;48.134;-1.948;2022-09-17T11:47:18;32.00;27.20
74520;DHT22;63002;48.134;-1.948;2022-09-17T11:49:53;32.00;28.20
74520;DHT22;63002;48.134;-1.948;2022-09-17T11:52:25;31.80;28.10
74520;DHT22;63002;48.134;-1.948;2022-09-17T11:55:22;31.70;28.60
74520;DHT22;63002;48.134;-1.948;2022-09-17T11:57:58;31.60;28.50
74520;DHT22;63002;48.134;-1.948;2022-09-17T12:00:27;31.70;27.90
74520;DHT22;63002;48.134;-1.948;2022-09-17T12:03:12;31.70;27.50
74520;DHT22;63002;48.134;-1.948;2022-09-17T12:05:54;31.70;26.30
74520;DHT22;63002;48.134;-1.948;2022-09-17T12:08:38;31.70;26.50
74520;DHT22;63002;48.134;-1.948;2022-09-17T12:21:22;31.60;28.60
74520;DHT22;63002;48.134;-1.948;2022-09-17T12:24:06;31.50;28.20
74520;DHT22;63002;48.134;-1.948;2022-09-17T12:48:32;30.80;28.00
74520;DHT22;63002;48.134;-1.948;2022-09-17T12:59:33;30.70;27.90
74520;DHT22;63002;48.134;-1.948;2022-09-17T13:02:29;30.60;28.10
74520;DHT22;63002;48.134;-1.948;2022-09-17T13:16:32;30.30;28.30
74520;DHT22;63002;48.134;-1.948;2022-09-17T13:22:20;30.10;28.50
74520;DHT22;63002;48.134;-1.948;2022-09-17T13:25:04;29.90;27.80
74520;DHT22;63002;48.134;-1.948;2022-09-17T13:27:31;29.70;29.00
74520;DHT22;63002;48.134;-1.948;2022-09-17T13:29:58;29.60;29.40
74520;DHT22;63002;48.134;-1.948;2022-09-17T13:37:58;29.70;28.70
74520;DHT22;63002;48.134;-1.948;2022-09-17T13:40:30;29.60;28.90
74520;DHT22;63002;48.134;-1.948;2022-09-17T13:43:07;29.60;29.10
74520;DHT22;63002;48.134;-1.948;2022-09-17T13:48:32;29.50;28.30
74520;DHT22;63002;48.134;-1.948;2022-09-17T13:54:08;29.30;28.90
74520;DHT22;63002;48.134;-1.948;2022-09-17T13:57:07;29.40;28.40
74520;DHT22;63002;48.134;-1.948;2022-09-17T13:59:59;29.20;28.30
74520;DHT22;63002;48.134;-1.948;2022-09-17T14:02:33;29.20;28.90
74520;DHT22;63002;48.134;-1.948;2022-09-17T14:05:23;29.20;28.50
74520;DHT22;63002;48.134;-1.948;2022-09-17T14:08:10;29.10;28.90
74520;DHT22;63002;48.134;-1.948;2022-09-17T14:10:40;28.90;28.40
74520;DHT22;63002;48.134;-1.948;2022-09-17T14:13:41;28.80;29.40
74520;DHT22;63002;48.134;-1.948;2022-09-17T14:19:38;28.70;29.10
74520;DHT22;63002;48.134;-1.948;2022-09-17T14:22:22;28.60;29.50
74520;DHT22;63002;48.134;-1.948;2022-09-17T14:24:51;28.60;29.90
74520;DHT22;63002;48.134;-1.948;2022-09-17T14:33:14;28.10;28.60
74520;DHT22;63002;48.134;-1.948;2022-09-17T14:35:54;28.10;29.00
74520;DHT22;63002;48.134;-1.948;2022-09-17T14:38:40;28.10;29.40
74520;DHT22;63002;48.134;-1.948;2022-09-17T14:43:54;28.00;30.40
74520;DHT22;63002;48.134;-1.948;2022-09-17T14:46:28;28.00;30.20
74520;DHT22;63002;48.134;-1.948;2022-09-17T14:48:54;28.00;30.00
74520;DHT22;63002;48.134;-1.948;2022-09-17T14:51:27;28.00;29.60
74520;DHT22;63002;48.134;-1.948;2022-09-17T14:54:20;27.90;30.60
74520;DHT22;63002;48.134;-1.948;2022-09-17T14:57:15;27.80;30.80
74520;DHT22;63002;48.134;-1.948;2022-09-17T14:59:48;27.60;31.40
74520;DHT22;63002;48.134;-1.948;2022-09-17T15:02:28;27.60;31.30
74520;DHT22;63002;48.134;-1.948;2022-09-17T15:04:56;27.60;30.20
74520;DHT22;63002;48.134;-1.948;2022-09-17T15:07:22;27.50;30.70
74520;DHT22;63002;48.134;-1.948;2022-09-17T15:09:48;27.40;30.60
74520;DHT22;63002;48.134;-1.948;2022-09-17T15:12:26;27.40;29.70
74520;DHT22;63002;48.134;-1.948;2022-09-17T15:14:54;27.30;30.80
74520;DHT22;63002;48.134;-1.948;2022-09-17T15:17:21;27.20;31.10
74520;DHT22;63002;48.134;-1.948;2022-09-17T15:19:55;27.20;31.50
74520;DHT22;63002;48.134;-1.948;2022-09-17T15:22:38;27.00;31.00
74520;DHT22;63002;48.134;-1.948;2022-09-17T15:25:11;27.00;31.00
74520;DHT22;63002;48.134;-1.948;2022-09-17T15:27:41;27.00;30.70
74520;DHT22;63002;48.134;-1.948;2022-09-17T15:30:15;27.00;32.10
74520;DHT22;63002;48.134;-1.948;2022-09-17T15:37:51;26.80;31.40
74520;DHT22;63002;48.134;-1.948;2022-09-17T15:40:39;26.80;31.30
74520;DHT22;63002;48.134;-1.948;2022-09-17T15:45:49;26.60;31.80
74520;DHT22;63002;48.134;-1.948;2022-09-17T15:48:37;26.60;32.00
74520;DHT22;63002;48.134;-1.948;2022-09-17T15:51:14;26.60;31.50
74520;DHT22;63002;48.134;-1.948;2022-09-17T15:53:55;26.50;33.00
74520;DHT22;63002;48.134;-1.948;2022-09-17T15:56:36;26.40;33.80
74520;DHT22;63002;48.134;-1.948;2022-09-17T15:59:27;26.40;32.50
74520;DHT22;63002;48.134;-1.948;2022-09-17T16:01:55;26.30;32.10
74520;DHT22;63002;48.134;-1.948;2022-09-17T16:04:32;26.20;32.50
74520;DHT22;63002;48.134;-1.948;2022-09-17T16:07:01;26.10;32.90
74520;DHT22;63002;48.134;-1.948;2022-09-17T16:12:02;26.10;32.50
74520;DHT22;63002;48.134;-1.948;2022-09-17T16:14:28;26.10;32.30
74520;DHT22;63002;48.134;-1.948;2022-09-17T16:16:54;26.00;32.40
74520;DHT22;63002;48.134;-1.948;2022-09-17T16:19:21;26.00;32.70
74520;DHT22;63002;48.134;-1.948;2022-09-17T16:21:47;25.90;33.00
74520;DHT22;63002;48.134;-1.948;2022-09-17T16:24:13;25.90;32.30
74520;DHT22;63002;48.134;-1.948;2022-09-17T16:26:39;25.80;33.10
74520;DHT22;63002;48.134;-1.948;2022-09-17T16:29:10;25.70;32.40
74520;DHT22;63002;48.134;-1.948;2022-09-17T16:31:37;25.60;32.90
74520;DHT22;63002;48.134;-1.948;2022-09-17T16:34:03;25.60;32.30
74520;DHT22;63002;48.134;-1.948;2022-09-17T16:36:29;25.60;32.50
74520;DHT22;63002;48.134;-1.948;2022-09-17T16:38:57;25.50;32.30
74520;DHT22;63002;48.134;-1.948;2022-09-17T16:41:22;25.50;32.80
74520;DHT22;63002;48.134;-1.948;2022-09-17T16:43:48;25.40;32.90
74520;DHT22;63002;48.134;-1.948;2022-09-17T16:46:14;25.40;32.70
74520;DHT22;63002;48.134;-1.948;2022-09-17T16:48:40;25.30;32.70
74520;DHT22;63002;48.134;-1.948;2022-09-17T16:51:12;25.20;32.50
74520;DHT22;63002;48.134;-1.948;2022-09-17T16:53:38;25.10;32.40
74520;DHT22;63002;48.134;-1.948;2022-09-17T16:56:08;25.10;32.70
74520;DHT22;63002;48.134;-1.948;2022-09-17T16:58:34;25.00;33.20
74520;DHT22;63002;48.134;-1.948;2022-09-17T17:01:13;25.00;32.90
74520;DHT22;63002;48.134;-1.948;2022-09-17T17:03:39;24.90;32.40
74520;DHT22;63002;48.134;-1.948;2022-09-17T17:06:05;24.90;32.50
74520;DHT22;63002;48.134;-1.948;2022-09-17T17:08:32;24.80;33.10
74520;DHT22;63002;48.134;-1.948;2022-09-17T17:10:58;24.80;33.50
74520;DHT22;63002;48.134;-1.948;2022-09-17T17:13:25;24.80;33.00
74520;DHT22;63002;48.134;-1.948;2022-09-17T17:15:52;24.80;33.00
74520;DHT22;63002;48.134;-1.948;2022-09-17T17:18:21;24.70;32.90
74520;DHT22;63002;48.134;-1.948;2022-09-17T17:20:47;24.50;33.80
74520;DHT22;63002;48.134;-1.948;2022-09-17T17:23:13;24.50;34.20
74520;DHT22;63002;48.134;-1.948;2022-09-17T17:25:39;24.40;33.30
74520;DHT22;63002;48.134;-1.948;2022-09-17T17:28:05;24.40;33.20
74520;DHT22;63002;48.134;-1.948;2022-09-17T17:30:31;24.40;33.70
74520;DHT22;63002;48.134;-1.948;2022-09-17T17:32:57;24.30;33.80
74520;DHT22;63002;48.134;-1.948;2022-09-17T17:35:25;24.30;33.50
74520;DHT22;63002;48.134;-1.948;2022-09-17T17:37:51;24.20;34.10
74520;DHT22;63002;48.134;-1.948;2022-09-17T17:40:16;24.20;34.10
74520;DHT22;63002;48.134;-1.948;2022-09-17T17:42:42;24.20;33.60
74520;DHT22;63002;48.134;-1.948;2022-09-17T17:45:11;24.20;33.80
74520;DHT22;63002;48.134;-1.948;2022-09-17T17:47:37;24.10;34.20
74520;DHT22;63002;48.134;-1.948;2022-09-17T17:50:03;24.10;33.90
74520;DHT22;63002;48.134;-1.948;2022-09-17T17:52:28;24.00;33.80
74520;DHT22;63002;48.134;-1.948;2022-09-17T17:54:56;23.90;33.60
74520;DHT22;63002;48.134;-1.948;2022-09-17T17:57:21;23.90;33.20
74520;DHT22;63002;48.134;-1.948;2022-09-17T17:59:47;23.80;33.80
74520;DHT22;63002;48.134;-1.948;2022-09-17T18:02:13;23.70;33.40
74520;DHT22;63002;48.134;-1.948;2022-09-17T18:04:39;23.70;33.30
74520;DHT22;63002;48.134;-1.948;2022-09-17T18:07:04;23.60;33.50
74520;DHT22;63002;48.134;-1.948;2022-09-17T18:09:30;23.60;33.70
74520;DHT22;63002;48.134;-1.948;2022-09-17T18:11:56;23.40;33.70
74520;DHT22;63002;48.134;-1.948;2022-09-17T18:14:22;23.40;33.80
74520;DHT22;63002;48.134;-1.948;2022-09-17T18:16:47;23.30;34.00
74520;DHT22;63002;48.134;-1.948;2022-09-17T18:19:14;23.20;34.30
74520;DHT22;63002;48.134;-1.948;2022-09-17T18:21:39;23.10;34.70
74520;DHT22;63002;48.134;-1.948;2022-09-17T18:24:06;23.10;34.90
74520;DHT22;63002;48.134;-1.948;2022-09-17T18:26:31;23.00;35.10
74520;DHT22;63002;48.134;-1.948;2022-09-17T18:28:59;22.90;35.20
74520;DHT22;63002;48.134;-1.948;2022-09-17T18:31:30;22.90;35.60
74520;DHT22;63002;48.134;-1.948;2022-09-17T18:34:08;22.80;35.60
74520;DHT22;63002;48.134;-1.948;2022-09-17T18:36:35;22.70;35.70
74520;DHT22;63002;48.134;-1.948;2022-09-17T18:39:03;22.60;36.10
74520;DHT22;63002;48.134;-1.948;2022-09-17T18:41:35;22.60;36.20
74520;DHT22;63002;48.134;-1.948;2022-09-17T18:44:09;22.50;36.30
74520;DHT22;63002;48.134;-1.948;2022-09-17T18:46:41;22.40;36.40
74520;DHT22;63002;48.134;-1.948;2022-09-17T18:49:08;22.30;36.50
74520;DHT22;63002;48.134;-1.948;2022-09-17T18:51:34;22.20;36.60
74520;DHT22;63002;48.134;-1.948;2022-09-17T18:53:59;22.10;36.70
74520;DHT22;63002;48.134;-1.948;2022-09-17T18:56:31;22.10;36.90
74520;DHT22;63002;48.134;-1.948;2022-09-17T18:58:58;22.00;37.10
74520;DHT22;63002;48.134;-1.948;2022-09-17T19:01:26;21.90;37.20
74520;DHT22;63002;48.134;-1.948;2022-09-17T19:03:53;21.80;37.30
74520;DHT22;63002;48.134;-1.948;2022-09-17T19:06:19;21.80;37.40
74520;DHT22;63002;48.134;-1.948;2022-09-17T19:08:45;21.70;37.50
74520;DHT22;63002;48.134;-1.948;2022-09-17T19:11:11;21.60;37.60
74520;DHT22;63002;48.134;-1.948;2022-09-17T19:13:42;21.60;37.70
74520;DHT22;63002;48.134;-1.948;2022-09-17T19:16:10;21.50;37.90
74520;DHT22;63002;48.134;-1.948;2022-09-17T19:18:36;21.50;38.20
74520;DHT22;63002;48.134;-1.948;2022-09-17T19:21:13;21.40;38.20
74520;DHT22;63002;48.134;-1.948;2022-09-17T19:23:43;21.30;38.30
74520;DHT22;63002;48.134;-1.948;2022-09-17T19:26:24;21.30;38.30
74520;DHT22;63002;48.134;-1.948;2022-09-17T19:28:57;21.20;38.40
74520;DHT22;63002;48.134;-1.948;2022-09-17T19:31:25;21.20;38.60
74520;DHT22;63002;48.134;-1.948;2022-09-17T19:33:51;21.10;38.80
74520;DHT22;63002;48.134;-1.948;2022-09-17T19:36:17;21.00;38.80
74520;DHT22;63002;48.134;-1.948;2022-09-17T19:38:44;21.00;38.80
74520;DHT22;63002;48.134;-1.948;2022-09-17T19:41:14;20.90;38.80
74520;DHT22;63002;48.134;-1.948;2022-09-17T19:43:40;20.90;38.90
74520;DHT22;63002;48.134;-1.948;2022-09-17T19:46:09;20.80;38.90
74520;DHT22;63002;48.134;-1.948;2022-09-17T19:48:36;20.80;39.10
74520;DHT22;63002;48.134;-1.948;2022-09-17T19:51:03;20.80;39.20
74520;DHT22;63002;48.134;-1.948;2022-09-17T19:53:30;20.70;39.40
74520;DHT22;63002;48.134;-1.948;2022-09-17T19:55:56;20.70;39.50
74520;DHT22;63002;48.134;-1.948;2022-09-17T19:58:22;20.60;39.60
74520;DHT22;63002;48.134;-1.948;2022-09-17T20:00:54;20.60;39.50
74520;DHT22;63002;48.134;-1.948;2022-09-17T20:03:20;20.50;39.70
74520;DHT22;63002;48.134;-1.948;2022-09-17T20:05:46;20.50;39.80
74520;DHT22;63002;48.134;-1.948;2022-09-17T20:08:11;20.40;39.90
74520;DHT22;63002;48.134;-1.948;2022-09-17T20:10:37;20.40;40.20
74520;DHT22;63002;48.134;-1.948;2022-09-17T20:13:04;20.30;40.40
74520;DHT22;63002;48.134;-1.948;2022-09-17T20:15:35;20.30;40.50
74520;DHT22;63002;48.134;-1.948;2022-09-17T20:18:02;20.20;40.70
74520;DHT22;63002;48.134;-1.948;2022-09-17T20:20:27;20.20;40.80
74520;DHT22;63002;48.134;-1.948;2022-09-17T20:22:54;20.20;40.90
74520;DHT22;63002;48.134;-1.948;2022-09-17T20:25:20;20.10;41.00
74520;DHT22;63002;48.134;-1.948;2022-09-17T20:27:46;20.10;41.20
74520;DHT22;63002;48.134;-1.948;2022-09-17T20:30:12;20.00;41.30
74520;DHT22;63002;48.134;-1.948;2022-09-17T20:32:38;20.00;41.40
74520;DHT22;63002;48.134;-1.948;2022-09-17T20:35:04;19.90;41.50
74520;DHT22;63002;48.134;-1.948;2022-09-17T20:37:30;19.90;41.50
74520;DHT22;63002;48.134;-1.948;2022-09-17T20:39:55;19.80;41.50
74520;DHT22;63002;48.134;-1.948;2022-09-17T20:42:21;19.80;41.60
74520;DHT22;63002;48.134;-1.948;2022-09-17T20:44:47;19.80;41.70
74520;DHT22;63002;48.134;-1.948;2022-09-17T20:47:13;19.70;41.80
